Time;durP1;ratioP1;P1;durP2;ratioP2;P2;SDS_P1;SDS_P2;PMS_P1;PMS_P2;Temp;Humidity;BMP_temperature;BMP_pressure;BME280_temperature;BME280_humidity;BME280_pressure;Samples;Min_cycle;Max_cycle;Signal;HPM_P1;HPM_P2
2022/10/31 00:01:29;;;;;;;10.40;4.93;;;;;;;;;;5097917;28;20685;-66
2022/10/31 00:03:59;;;;;;;13.97;5.77;;;;;;;;;;5097702;28;20268;-66
2022/10/31 00:06:29;;;;;;;13.10;5.50;;;;;;;;;;5098046;28;20235;-66
2022/10/31 00:08:58;;;;;;;12.07;5.17;;;;;;;;;;5097809;28;20288;-66
2022/10/31 00:11:26;;;;;;;12.40;5.40;;;;;;;;;;5097530;28;20206;-66
2022/10/31 00:13:54;;;;;;;12.50;5.23;;;;;;;;;;5097988;28;20279;-66
2022/10/31 00:16:22;;;;;;;16.13;5.47;;;;;;;;;;5097540;28;20237;-66
2022/10/31 00:18:50;;;;;;;7.97;5.03;;;;;;;;;;5097500;28;20289;-66
2022/10/31 00:21:19;;;;;;;14.70;5.97;;;;;;;;;;5097774;28;20560;-66
2022/10/31 00:23:47;;;;;;;12.67;5.60;;;;;;;;;;5097532;28;20279;-66
2022/10/31 00:26:15;;;;;;;11.33;4.90;;;;;;;;;;5097207;28;20243;-66
2022/10/31 00:28:42;;;;;;;10.50;5.10;;;;;;;;;;5097615;28;20271;-66
2022/10/31 00:31:11;;;;;;;12.30;4.93;;;;;;;;;;5097703;28;20206;-66
2022/10/31 00:33:39;;;;;;;9.77;5.23;;;;;;;;;;5097480;28;20226;-65
2022/10/31 00:36:07;;;;;;;15.40;6.30;;;;;;;;;;5097689;28;20210;-66
2022/10/31 00:38:36;;;;;;;8.17;4.50;;;;;;;;;;5097136;28;20607;-66
2022/10/31 00:41:04;;;;;;;12.47;5.37;;;;;;;;;;5097366;28;20216;-65
2022/10/31 00:43:32;;;;;;;14.00;4.67;;;;;;;;;;5097019;28;20309;-65
2022/10/31 00:45:59;;;;;;;11.87;4.93;;;;;;;;;;5097478;28;20285;-65
2022/10/31 00:48:27;;;;;;;13.53;5.27;;;;;;;;;;5097168;28;20659;-65
2022/10/31 00:50:55;;;;;;;13.53;5.60;;;;;;;;;;5097446;28;20692;-65
2022/10/31 00:53:23;;;;;;;10.00;5.40;;;;;;;;;;5097207;28;20260;-66
2022/10/31 00:55:52;;;;;;;8.47;5.20;;;;;;;;;;5097135;28;20244;-66
2022/10/31 00:58:20;;;;;;;12.93;5.57;;;;;;;;;;5096784;28;20285;-66
2022/10/31 01:00:54;;;;;;;11.80;5.67;;;;;;;;;;5097433;28;20612;-67
2022/10/31 01:03:23;;;;;;;10.33;5.17;;;;;;;;;;5097237;28;20631;-66
2022/10/31 01:05:58;;;;;;;10.40;4.67;;;;;;;;;;5097833;28;20237;-67
2022/10/31 01:08:26;;;;;;;13.23;4.90;;;;;;;;;;5100871;28;20260;-66
2022/10/31 01:11:02;;;;;;;8.93;4.93;;;;;;;;;;5101272;28;20231;-64
2022/10/31 01:13:30;;;;;;;10.00;5.20;;;;;;;;;;5100890;28;20261;-66
2022/10/31 01:15:58;;;;;;;10.40;5.43;;;;;;;;;;5100925;28;20288;-65
2022/10/31 01:18:26;;;;;;;13.33;6.23;;;;;;;;;;5100861;28;20282;-65
2022/10/31 01:21:00;;;;;;;14.10;6.03;;;;;;;;;;5100826;28;20237;-66
2022/10/31 01:23:29;;;;;;;8.13;4.93;;;;;;;;;;5100612;28;20256;-65
2022/10/31 01:26:02;;;;;;;14.03;5.97;;;;;;;;;;5100784;28;20736;-65
2022/10/31 01:28:29;;;;;;;11.13;6.30;;;;;;;;;;5100635;28;20748;-65
2022/10/31 01:31:01;;;;;;;8.53;5.03;;;;;;;;;;5100423;28;20292;-65
2022/10/31 01:33:28;;;;;;;8.27;4.77;;;;;;;;;;5100307;28;20263;-65
2022/10/31 01:35:56;;;;;;;11.80;5.80;;;;;;;;;;5100548;28;20233;-64
2022/10/31 01:38:24;;;;;;;9.03;5.23;;;;;;;;;;5100004;28;20202;-65
2022/10/31 01:40:52;;;;;;;13.43;6.20;;;;;;;;;;5100136;28;20220;-65
2022/10/31 01:43:21;;;;;;;10.90;5.37;;;;;;;;;;5100183;28;20272;-65
2022/10/31 01:45:51;;;;;;;10.53;5.53;;;;;;;;;;5100047;28;20274;-67
2022/10/31 01:48:20;;;;;;;8.43;5.63;;;;;;;;;;5100666;28;20225;-67
2022/10/31 01:50:49;;;;;;;12.70;6.53;;;;;;;;;;5100284;28;20206;-66
2022/10/31 01:53:17;;;;;;;9.83;5.00;;;;;;;;;;5100017;28;20241;-66
2022/10/31 01:55:52;;;;;;;14.77;5.33;;;;;;;;;;5099946;28;20245;-67
2022/10/31 01:58:23;;;;;;;14.10;5.90;;;;;;;;;;5099863;28;20265;-65
2022/10/31 02:00:52;;;;;;;14.37;5.63;;;;;;;;;;5099853;28;20588;-65
2022/10/31 02:03:21;;;;;;;8.33;5.13;;;;;;;;;;5099990;28;20225;-66
2022/10/31 02:05:52;;;;;;;11.43;5.97;;;;;;;;;;5099980;28;20660;-66
2022/10/31 02:08:22;;;;;;;9.07;5.17;;;;;;;;;;5099447;28;20261;-66
2022/10/31 02:10:50;;;;;;;9.27;4.93;;;;;;;;;;5099889;28;20202;-66
2022/10/31 02:13:18;;;;;;;16.73;5.47;;;;;;;;;;5099170;28;20241;-66
2022/10/31 02:15:50;;;;;;;13.53;5.13;;;;;;;;;;5099803;28;20306;-66
2022/10/31 02:18:18;;;;;;;11.43;5.80;;;;;;;;;;5099331;28;20225;-66
2022/10/31 02:20:50;;;;;;;12.37;5.30;;;;;;;;;;5099673;28;20273;-66
2022/10/31 02:23:29;;;;;;;9.53;5.30;;;;;;;;;;5096933;28;20281;-66
2022/10/31 02:26:14;;;;;;;15.57;6.13;;;;;;;;;;5099272;28;20197;-66
2022/10/31 02:28:52;;;;;;;10.10;5.13;;;;;;;;;;5097375;28;20301;-66
2022/10/31 02:31:27;;;;;;;12.20;5.20;;;;;;;;;;5099356;28;20227;-66
2022/10/31 02:33:58;;;;;;;13.47;5.67;;;;;;;;;;5099290;28;20225;-65
2022/10/31 02:36:28;;;;;;;11.80;5.60;;;;;;;;;;5099199;28;20197;-65
2022/10/31 02:39:01;;;;;;;9.43;5.93;;;;;;;;;;5099162;28;20289;-65
2022/10/31 02:41:33;;;;;;;13.90;6.30;;;;;;;;;;5098780;28;20193;-65
2022/10/31 02:44:03;;;;;;;16.13;5.60;;;;;;;;;;5099206;28;20233;-66
2022/10/31 02:46:34;;;;;;;11.17;5.60;;;;;;;;;;5098777;28;20233;-65
2022/10/31 02:49:04;;;;;;;8.50;5.07;;;;;;;;;;5098615;28;20308;-65
2022/10/31 02:51:31;;;;;;;11.73;5.23;;;;;;;;;;5099150;28;20244;-65
2022/10/31 02:53:59;;;;;;;14.03;5.83;;;;;;;;;;5098598;28;20229;-65
2022/10/31 02:56:29;;;;;;;13.10;5.57;;;;;;;;;;5098428;28;20265;-65
2022/10/31 02:58:59;;;;;;;14.23;5.40;;;;;;;;;;5098967;28;20263;-64
2022/10/31 03:01:40;;;;;;;9.17;5.70;;;;;;;;;;5098679;28;20240;-65
2022/10/31 03:04:17;;;;;;;9.77;6.03;;;;;;;;;;5099120;28;20231;-65
2022/10/31 03:06:46;;;;;;;13.93;5.70;;;;;;;;;;5098789;28;20691;-65
2022/10/31 03:09:19;;;;;;;10.67;5.13;;;;;;;;;;5098393;28;20256;-65
2022/10/31 03:11:54;;;;;;;10.83;6.07;;;;;;;;;;5098694;28;20244;-65
2022/10/31 03:14:25;;;;;;;13.70;5.87;;;;;;;;;;5098664;28;20261;-66
2022/10/31 03:16:56;;;;;;;17.20;5.50;;;;;;;;;;5098623;28;20700;-66
2022/10/31 03:19:28;;;;;;;11.73;5.53;;;;;;;;;;5098530;28;20201;-66
2022/10/31 03:21:59;;;;;;;11.17;5.70;;;;;;;;;;5098534;28;20304;-66
2022/10/31 03:24:28;;;;;;;9.87;6.87;;;;;;;;;;5097939;28;20276;-66
2022/10/31 03:26:57;;;;;;;15.30;5.67;;;;;;;;;;5097531;28;20221;-66
2022/10/31 03:29:27;;;;;;;10.33;5.40;;;;;;;;;;5097271;28;20290;-66
2022/10/31 03:31:58;;;;;;;9.03;5.13;;;;;;;;;;5098365;28;20299;-66
2022/10/31 03:34:26;;;;;;;10.83;5.30;;;;;;;;;;5098234;28;20257;-65
2022/10/31 03:37:00;;;;;;;12.13;5.53;;;;;;;;;;5098078;28;20209;-65
2022/10/31 03:39:29;;;;;;;10.53;6.00;;;;;;;;;;5097931;28;20651;-65
2022/10/31 03:42:00;;;;;;;11.70;5.07;;;;;;;;;;5097839;28;20233;-65
2022/10/31 03:44:30;;;;;;;10.37;5.73;;;;;;;;;;5098038;28;20268;-64
2022/10/31 03:47:00;;;;;;;7.57;4.73;;;;;;;;;;5098112;28;20236;-65
2022/10/31 03:49:28;;;;;;;12.17;5.47;;;;;;;;;;5097748;28;20679;-64
2022/10/31 03:51:58;;;;;;;11.23;4.93;;;;;;;;;;5097806;28;20266;-64
2022/10/31 03:54:28;;;;;;;13.73;5.30;;;;;;;;;;5097731;28;20735;-67
2022/10/31 03:56:59;;;;;;;9.63;5.70;;;;;;;;;;5097746;28;20245;-66
2022/10/31 03:59:29;;;;;;;8.77;4.97;;;;;;;;;;5098073;28;20284;-66
2022/10/31 04:02:03;;;;;;;11.17;5.33;;;;;;;;;;5097574;28;20283;-66
2022/10/31 04:04:31;;;;;;;15.07;5.27;;;;;;;;;;5097864;28;20308;-66
2022/10/31 04:07:02;;;;;;;13.63;4.90;;;;;;;;;;5097633;28;20342;-66
2022/10/31 04:09:32;;;;;;;12.60;5.50;;;;;;;;;;5097433;28;20272;-66
2022/10/31 04:12:01;;;;;;;13.03;6.23;;;;;;;;;;5097290;28;20209;-65
2022/10/31 04:14:30;;;;;;;8.97;5.60;;;;;;;;;;5097477;28;20236;-67
2022/10/31 04:17:00;;;;;;;12.00;5.30;;;;;;;;;;5097472;28;20292;-66
2022/10/31 04:19:31;;;;;;;10.63;5.10;;;;;;;;;;5097733;28;20682;-66
2022/10/31 04:22:02;;;;;;;16.70;5.77;;;;;;;;;;5097803;28;20245;-66
2022/10/31 04:24:29;;;;;;;11.40;5.27;;;;;;;;;;5097477;28;20260;-66
2022/10/31 04:26:58;;;;;;;13.30;6.57;;;;;;;;;;5097478;28;20707;-66
2022/10/31 04:29:26;;;;;;;10.43;6.53;;;;;;;;;;5097557;28;20600;-66
2022/10/31 04:31:55;;;;;;;10.60;4.87;;;;;;;;;;5097501;28;20213;-66
2022/10/31 04:34:24;;;;;;;10.27;5.43;;;;;;;;;;5097601;28;20253;-66
2022/10/31 04:36:52;;;;;;;10.47;5.50;;;;;;;;;;5097635;28;20236;-66
2022/10/31 04:39:20;;;;;;;8.80;5.30;;;;;;;;;;5097523;28;20708;-66
2022/10/31 04:41:53;;;;;;;14.30;6.40;;;;;;;;;;5101129;28;20216;-66
2022/10/31 04:44:20;;;;;;;8.10;5.57;;;;;;;;;;5101570;28;20264;-66
2022/10/31 04:46:48;;;;;;;13.20;6.63;;;;;;;;;;5101513;28;20664;-66
2022/10/31 04:49:16;;;;;;;12.50;5.87;;;;;;;;;;5101453;28;20221;-66
2022/10/31 04:51:45;;;;;;;8.43;5.50;;;;;;;;;;5101146;28;20309;-66
2022/10/31 04:54:12;;;;;;;13.83;5.97;;;;;;;;;;5101215;28;20269;-66
2022/10/31 04:56:40;;;;;;;15.77;6.23;;;;;;;;;;5100648;28;20364;-66
2022/10/31 04:59:08;;;;;;;15.07;6.87;;;;;;;;;;5101344;28;20201;-66
2022/10/31 05:01:35;;;;;;;11.47;6.10;;;;;;;;;;5101113;28;20268;-66
2022/10/31 05:04:03;;;;;;;10.57;6.57;;;;;;;;;;5100948;28;20225;-66
2022/10/31 05:06:31;;;;;;;9.77;5.40;;;;;;;;;;5101212;28;20247;-66
2022/10/31 05:09:00;;;;;;;13.53;6.30;;;;;;;;;;5100845;28;20237;-66
2022/10/31 05:11:28;;;;;;;12.90;6.23;;;;;;;;;;5100545;28;20206;-66
2022/10/31 05:13:55;;;;;;;11.70;6.30;;;;;;;;;;5101001;28;20264;-66
2022/10/31 05:16:23;;;;;;;13.93;6.27;;;;;;;;;;5100899;28;20724;-66
2022/10/31 05:18:51;;;;;;;15.37;6.10;;;;;;;;;;5100704;28;20297;-66
2022/10/31 05:21:18;;;;;;;9.40;6.17;;;;;;;;;;5100820;28;20281;-66
2022/10/31 05:23:46;;;;;;;14.77;7.30;;;;;;;;;;5100325;28;20328;-66
2022/10/31 05:26:16;;;;;;;7.43;5.53;;;;;;;;;;5100228;28;20209;-66
2022/10/31 05:28:44;;;;;;;23.80;6.90;;;;;;;;;;5100317;28;20255;-66
2022/10/31 05:31:11;;;;;;;13.03;6.30;;;;;;;;;;5100486;28;20257;-66
2022/10/31 05:33:39;;;;;;;15.57;6.47;;;;;;;;;;5100542;28;20225;-65
2022/10/31 05:36:07;;;;;;;9.90;5.93;;;;;;;;;;5100656;28;20626;-66
2022/10/31 05:38:35;;;;;;;12.50;6.40;;;;;;;;;;5100520;28;20339;-66
2022/10/31 05:41:02;;;;;;;14.63;6.30;;;;;;;;;;5099931;28;20237;-66
2022/10/31 05:43:31;;;;;;;8.13;6.07;;;;;;;;;;5100379;28;20271;-66
2022/10/31 05:46:02;;;;;;;13.53;6.50;;;;;;;;;;5100145;28;20237;-66
2022/10/31 05:48:32;;;;;;;19.73;7.67;;;;;;;;;;5100359;28;20255;-66
2022/10/31 05:51:02;;;;;;;11.47;7.90;;;;;;;;;;5100161;28;20261;-66
2022/10/31 05:53:30;;;;;;;15.90;6.70;;;;;;;;;;5099425;28;20260;-66
2022/10/31 05:55:58;;;;;;;12.40;7.37;;;;;;;;;;5099765;28;20395;-66
2022/10/31 05:58:25;;;;;;;13.27;6.53;;;;;;;;;;5099813;28;20233;-66
2022/10/31 06:00:55;;;;;;;17.70;6.70;;;;;;;;;;5100604;28;20237;-66
2022/10/31 06:03:22;;;;;;;13.70;5.80;;;;;;;;;;5099917;28;20257;-66
2022/10/31 06:05:50;;;;;;;13.57;6.37;;;;;;;;;;5100072;28;20288;-66
2022/10/31 06:08:21;;;;;;;11.03;6.30;;;;;;;;;;5099889;28;20244;-66
2022/10/31 06:10:49;;;;;;;10.63;6.47;;;;;;;;;;5099482;28;20290;-66
2022/10/31 06:13:17;;;;;;;12.83;6.37;;;;;;;;;;5099426;28;20252;-66
2022/10/31 06:15:44;;;;;;;16.27;6.70;;;;;;;;;;5099942;28;20205;-66
2022/10/31 06:18:13;;;;;;;13.80;6.70;;;;;;;;;;5099436;28;20277;-66
2022/10/31 06:20:41;;;;;;;13.80;7.57;;;;;;;;;;5099759;28;20232;-66
2022/10/31 06:23:09;;;;;;;13.80;7.90;;;;;;;;;;5099130;28;20307;-66
2022/10/31 06:25:36;;;;;;;12.10;7.03;;;;;;;;;;5099807;28;20241;-66
2022/10/31 06:28:04;;;;;;;14.77;7.00;;;;;;;;;;5099127;28;20214;-66
2022/10/31 06:30:32;;;;;;;18.37;7.10;;;;;;;;;;5099185;28;20257;-65
2022/10/31 06:33:06;;;;;;;15.33;6.97;;;;;;;;;;5099158;28;20245;-65
2022/10/31 06:35:35;;;;;;;14.13;6.47;;;;;;;;;;5099155;28;20237;-64
2022/10/31 06:38:05;;;;;;;11.80;6.87;;;;;;;;;;5099016;28;20237;-66
2022/10/31 06:40:33;;;;;;;11.27;7.00;;;;;;;;;;5099351;28;20202;-66
2022/10/31 06:43:01;;;;;;;21.00;6.47;;;;;;;;;;5098988;28;20284;-66
2022/10/31 06:45:29;;;;;;;13.90;6.47;;;;;;;;;;5098994;28;20635;-66
2022/10/31 06:47:59;;;;;;;18.40;6.83;;;;;;;;;;5099236;28;20210;-66
2022/10/31 06:50:46;;;;;;;12.27;6.50;;;;;;;;;;5099110;28;20687;-66
2022/10/31 06:53:14;;;;;;;12.13;6.03;;;;;;;;;;5099026;28;20238;-66
2022/10/31 06:55:42;;;;;;;12.87;6.80;;;;;;;;;;5098677;28;20290;-66
2022/10/31 06:58:10;;;;;;;12.13;5.87;;;;;;;;;;5098845;28;20292;-66
2022/10/31 07:00:38;;;;;;;13.10;5.70;;;;;;;;;;5099005;28;20233;-66
2022/10/31 07:03:07;;;;;;;14.57;7.10;;;;;;;;;;5098623;28;20227;-66
2022/10/31 07:05:34;;;;;;;11.43;6.60;;;;;;;;;;5098480;28;20262;-66
2022/10/31 07:08:04;;;;;;;16.50;6.77;;;;;;;;;;5098446;28;20236;-66
2022/10/31 07:10:33;;;;;;;11.60;6.17;;;;;;;;;;5098618;28;20259;-66
2022/10/31 07:13:09;;;;;;;15.53;6.03;;;;;;;;;;5098552;28;20209;-66
2022/10/31 07:15:37;;;;;;;15.00;6.53;;;;;;;;;;5098670;28;20210;-66
2022/10/31 07:18:06;;;;;;;12.20;5.80;;;;;;;;;;5098278;28;20198;-66
2022/10/31 07:20:34;;;;;;;11.67;6.43;;;;;;;;;;5098623;28;20641;-66
2022/10/31 07:23:01;;;;;;;9.90;5.97;;;;;;;;;;5098218;28;20209;-66
2022/10/31 07:25:31;;;;;;;17.80;6.17;;;;;;;;;;5098513;28;20661;-66
2022/10/31 07:28:01;;;;;;;11.40;6.30;;;;;;;;;;5098147;28;20233;-66
2022/10/31 07:30:29;;;;;;;14.20;6.37;;;;;;;;;;5098330;28;20209;-66
2022/10/31 07:32:57;;;;;;;12.13;6.80;;;;;;;;;;5098363;28;20225;-66
2022/10/31 07:35:26;;;;;;;15.30;6.87;;;;;;;;;;5098321;28;20289;-66
2022/10/31 07:37:56;;;;;;;15.57;6.97;;;;;;;;;;5098191;28;20296;-66
2022/10/31 07:40:26;;;;;;;16.27;6.57;;;;;;;;;;5097829;28;20575;-66
2022/10/31 07:42:55;;;;;;;19.07;7.17;;;;;;;;;;5098036;28;20232;-66
2022/10/31 07:45:23;;;;;;;11.73;6.20;;;;;;;;;;5097781;28;20264;-66
2022/10/31 07:47:51;;;;;;;14.80;6.93;;;;;;;;;;5097859;28;20289;-66
2022/10/31 07:50:20;;;;;;;14.23;6.77;;;;;;;;;;5098161;28;20240;-65
2022/10/31 07:52:47;;;;;;;9.10;6.23;;;;;;;;;;5097615;28;20308;-66
2022/10/31 07:55:15;;;;;;;15.23;7.00;;;;;;;;;;5097649;28;20272;-66
2022/10/31 07:57:43;;;;;;;13.73;6.50;;;;;;;;;;5097623;28;20205;-66
2022/10/31 08:00:13;;;;;;;15.33;7.23;;;;;;;;;;5097639;28;20581;-66
2022/10/31 08:02:40;;;;;;;18.87;7.97;;;;;;;;;;5097963;28;20237;-66
2022/10/31 08:05:08;;;;;;;13.77;7.27;;;;;;;;;;5097751;28;20288;-66
2022/10/31 08:07:37;;;;;;;12.63;6.73;;;;;;;;;;5097527;28;20637;-66
2022/10/31 08:10:05;;;;;;;12.30;7.20;;;;;;;;;;5097551;28;20201;-66
2022/10/31 08:12:32;;;;;;;15.33;7.47;;;;;;;;;;5097239;28;20280;-66
2022/10/31 08:15:00;;;;;;;15.37;6.60;;;;;;;;;;5097027;28;20264;-66
2022/10/31 08:17:29;;;;;;;13.67;6.90;;;;;;;;;;5097713;28;20355;-66
2022/10/31 08:19:58;;;;;;;13.93;7.03;;;;;;;;;;5097809;28;20300;-66
2022/10/31 08:22:26;;;;;;;16.70;6.07;;;;;;;;;;5097696;28;20197;-66
2022/10/31 08:24:53;;;;;;;13.13;6.70;;;;;;;;;;5097669;28;20655;-66
2022/10/31 08:27:21;;;;;;;15.17;7.20;;;;;;;;;;5097539;28;20262;-66
2022/10/31 08:29:49;;;;;;;15.60;7.73;;;;;;;;;;5097668;28;20695;-66
2022/10/31 08:32:16;;;;;;;16.03;7.07;;;;;;;;;;5097602;28;20265;-66
2022/10/31 08:34:45;;;;;;;17.03;6.53;;;;;;;;;;5097538;28;20261;-66
2022/10/31 08:37:18;;;;;;;15.67;6.53;;;;;;;;;;5097465;28;20231;-66
2022/10/31 08:39:46;;;;;;;19.90;7.33;;;;;;;;;;5097576;28;20204;-66
2022/10/31 08:42:14;;;;;;;20.20;6.90;;;;;;;;;;5096967;28;20206;-66
2022/10/31 08:44:41;;;;;;;11.60;6.37;;;;;;;;;;5097393;28;20255;-66
2022/10/31 08:47:09;;;;;;;9.10;6.30;;;;;;;;;;5097165;28;20248;-66
2022/10/31 08:49:37;;;;;;;13.03;6.23;;;;;;;;;;5097200;28;20201;-66
2022/10/31 08:52:06;;;;;;;13.53;5.70;;;;;;;;;;5097356;28;20225;-66
2022/10/31 08:54:40;;;;;;;18.43;7.27;;;;;;;;;;5096756;28;20221;-66
2022/10/31 08:57:08;;;;;;;14.07;6.33;;;;;;;;;;5097051;28;20206;-66
2022/10/31 08:59:36;;;;;;;11.30;6.17;;;;;;;;;;5097669;28;20210;-66
2022/10/31 09:02:03;;;;;;;14.17;6.43;;;;;;;;;;5097522;28;20217;-66
2022/10/31 09:04:31;;;;;;;15.97;7.10;;;;;;;;;;5097655;28;20615;-66
2022/10/31 09:07:02;;;;;;;13.67;6.33;;;;;;;;;;5097269;28;20339;-66
2022/10/31 09:09:51;;;;;;;10.63;6.17;;;;;;;;;;5096920;28;20209;-66
2022/10/31 09:12:18;;;;;;;11.90;5.87;;;;;;;;;;5096663;28;20257;-66
2022/10/31 09:14:46;;;;;;;11.60;5.70;;;;;;;;;;5097049;28;20693;-66
2022/10/31 09:17:14;;;;;;;16.63;5.87;;;;;;;;;;5097084;28;20236;-66
2022/10/31 09:19:41;;;;;;;11.57;5.60;;;;;;;;;;5097074;28;20205;-66
2022/10/31 09:22:09;;;;;;;8.67;5.00;;;;;;;;;;5096798;28;20237;-66
2022/10/31 09:24:37;;;;;;;16.30;5.40;;;;;;;;;;5096894;28;20236;-65
2022/10/31 09:27:06;;;;;;;10.87;5.60;;;;;;;;;;5097412;28;20237;-66
2022/10/31 09:29:34;;;;;;;13.73;5.13;;;;;;;;;;5100704;28;20206;-64
2022/10/31 09:32:01;;;;;;;9.80;5.27;;;;;;;;;;5100635;28;20253;-66
2022/10/31 09:34:29;;;;;;;13.10;5.20;;;;;;;;;;5100426;28;20256;-65
2022/10/31 09:36:57;;;;;;;13.07;5.60;;;;;;;;;;5100606;28;20241;-64
2022/10/31 09:39:25;;;;;;;13.57;5.70;;;;;;;;;;5100271;28;20206;-66
2022/10/31 09:42:01;;;;;;;12.70;5.43;;;;;;;;;;5100278;28;20224;-65
2022/10/31 09:44:38;;;;;;;10.53;4.87;;;;;;;;;;5100070;28;20224;-64
2022/10/31 09:47:10;;;;;;;10.63;5.67;;;;;;;;;;5100109;28;20286;-65
2022/10/31 09:49:48;;;;;;;10.17;5.27;;;;;;;;;;5100995;28;20202;-65
2022/10/31 09:52:19;;;;;;;10.47;5.17;;;;;;;;;;5099861;28;20225;-65
2022/10/31 09:54:49;;;;;;;8.93;4.87;;;;;;;;;;5100465;28;20241;-65
2022/10/31 09:57:20;;;;;;;8.73;5.33;;;;;;;;;;5099725;28;20613;-65
2022/10/31 09:59:50;;;;;;;11.93;5.70;;;;;;;;;;5099964;28;20244;-65
2022/10/31 10:02:20;;;;;;;15.80;5.90;;;;;;;;;;5100135;28;20280;-66
2022/10/31 10:04:52;;;;;;;12.70;5.60;;;;;;;;;;5099816;28;20225;-65
2022/10/31 10:07:24;;;;;;;13.67;4.53;;;;;;;;;;5099864;28;20607;-66
2022/10/31 10:09:51;;;;;;;13.50;3.80;;;;;;;;;;5100175;28;20288;-64
2022/10/31 10:12:24;;;;;;;13.70;4.30;;;;;;;;;;5099534;28;20253;-65
2022/10/31 10:15:00;;;;;;;11.37;4.53;;;;;;;;;;5100324;28;20228;-64
2022/10/31 10:17:34;;;;;;;10.53;4.00;;;;;;;;;;5100224;28;20212;-64
2022/10/31 10:20:23;;;;;;;5.23;3.33;;;;;;;;;;5087649;28;20237;-65
2022/10/31 10:22:53;;;;;;;10.57;3.50;;;;;;;;;;5099694;28;20273;-65
2022/10/31 10:25:23;;;;;;;5.67;3.20;;;;;;;;;;5099485;28;20225;-65
2022/10/31 10:27:55;;;;;;;9.67;4.23;;;;;;;;;;5099031;28;20209;-65
2022/10/31 10:30:29;;;;;;;8.90;3.30;;;;;;;;;;5099148;28;20583;-64
2022/10/31 10:32:58;;;;;;;12.93;3.60;;;;;;;;;;5099055;28;20225;-64
2022/10/31 10:35:28;;;;;;;7.77;3.00;;;;;;;;;;5099311;28;20237;-65
2022/10/31 10:37:59;;;;;;;12.63;3.33;;;;;;;;;;5098888;28;20283;-65
2022/10/31 10:40:31;;;;;;;9.93;3.33;;;;;;;;;;5099309;28;20205;-66
2022/10/31 10:43:21;;;;;;;6.67;2.50;;;;;;;;;;5098859;28;20229;-64
2022/10/31 10:49:04;;;;;;;9.83;3.47;;;;;;;;;;5099048;28;20637;-65
2022/10/31 10:51:36;;;;;;;6.27;2.83;;;;;;;;;;5099178;28;20247;-66
2022/10/31 10:54:34;;;;;;;8.23;2.73;;;;;;;;;;5097733;28;20249;-67
2022/10/31 10:57:08;;;;;;;11.17;2.80;;;;;;;;;;5098371;28;20236;-65
2022/10/31 10:59:35;;;;;;;6.63;2.67;;;;;;;;;;5099259;28;20642;-65
2022/10/31 11:02:16;;;;;;;14.73;2.93;;;;;;;;;;5098526;28;20210;-65
2022/10/31 11:04:44;;;;;;;11.40;3.23;;;;;;;;;;5098473;28;20233;-65
2022/10/31 11:07:12;;;;;;;9.63;2.77;;;;;;;;;;5098459;28;20239;-65
2022/10/31 11:09:40;;;;;;;7.10;2.33;;;;;;;;;;5098268;28;20658;-66
2022/10/31 11:12:08;;;;;;;11.23;3.20;;;;;;;;;;5098477;28;20288;-65
2022/10/31 11:14:38;;;;;;;13.03;2.87;;;;;;;;;;5098579;28;20262;-65
2022/10/31 11:17:11;;;;;;;9.03;3.97;;;;;;;;;;5098703;28;20239;-65
2022/10/31 11:19:39;;;;;;;11.27;2.80;;;;;;;;;;5098387;28;20567;-65
2022/10/31 11:22:08;;;;;;;9.70;3.30;;;;;;;;;;5098535;28;20211;-66
2022/10/31 11:24:40;;;;;;;8.77;2.73;;;;;;;;;;5098346;28;20222;-65
2022/10/31 11:27:13;;;;;;;9.93;3.80;;;;;;;;;;5098418;28;20205;-65
2022/10/31 11:29:41;;;;;;;12.13;3.73;;;;;;;;;;5098776;28;20293;-65
2022/10/31 11:32:17;;;;;;;11.83;2.77;;;;;;;;;;5098261;28;20237;-65
2022/10/31 11:34:46;;;;;;;12.97;3.33;;;;;;;;;;5098275;28;20270;-65
2022/10/31 11:37:15;;;;;;;7.03;2.77;;;;;;;;;;5098390;28;20246;-66
2022/10/31 11:39:44;;;;;;;7.63;2.90;;;;;;;;;;5097970;28;20616;-64
2022/10/31 11:42:12;;;;;;;6.50;3.33;;;;;;;;;;5097929;28;20659;-66
2022/10/31 11:44:43;;;;;;;6.93;2.93;;;;;;;;;;5098010;28;20598;-65
2022/10/31 11:47:14;;;;;;;6.63;2.87;;;;;;;;;;5098334;28;20292;-65
2022/10/31 11:49:43;;;;;;;8.80;3.83;;;;;;;;;;5097600;28;20243;-65
2022/10/31 11:52:14;;;;;;;13.03;2.97;;;;;;;;;;5098120;28;20236;-66
2022/10/31 11:54:43;;;;;;;7.83;3.00;;;;;;;;;;5097515;28;20240;-66
2022/10/31 11:57:22;;;;;;;11.50;3.30;;;;;;;;;;5097811;28;20231;-66
2022/10/31 11:59:52;;;;;;;12.77;3.20;;;;;;;;;;5097892;28;20263;-65
2022/10/31 12:02:21;;;;;;;9.63;2.67;;;;;;;;;;5098005;28;20236;-64
2022/10/31 12:04:52;;;;;;;7.47;3.53;;;;;;;;;;5097634;28;20225;-65
2022/10/31 12:07:20;;;;;;;7.27;2.80;;;;;;;;;;5097938;28;20243;-66
2022/10/31 12:09:47;;;;;;;11.07;2.97;;;;;;;;;;5097563;28;20324;-66
2022/10/31 12:12:35;;;;;;;7.00;2.73;;;;;;;;;;5097395;28;20263;-65
2022/10/31 12:15:13;;;;;;;8.73;2.87;;;;;;;;;;5097790;28;20657;-66
2022/10/31 12:17:45;;;;;;;7.70;3.07;;;;;;;;;;5097611;28;20200;-65
2022/10/31 12:20:22;;;;;;;15.87;3.57;;;;;;;;;;5097502;28;20233;-65
2022/10/31 12:22:55;;;;;;;10.27;2.97;;;;;;;;;;5097560;28;20209;-65
2022/10/31 12:25:29;;;;;;;10.70;3.17;;;;;;;;;;5097728;28;20262;-66
2022/10/31 12:28:04;;;;;;;10.50;3.17;;;;;;;;;;5097564;28;20220;-66
2022/10/31 12:30:37;;;;;;;13.63;3.17;;;;;;;;;;5097637;28;20243;-66
2022/10/31 12:33:15;;;;;;;8.83;2.60;;;;;;;;;;5097088;28;20237;-65
2022/10/31 12:35:49;;;;;;;11.20;3.10;;;;;;;;;;5097296;28;20291;-66
2022/10/31 12:38:31;;;;;;;7.70;2.60;;;;;;;;;;5097222;28;20239;-66
2022/10/31 12:41:06;;;;;;;10.27;2.70;;;;;;;;;;5097194;28;20603;-65
2022/10/31 12:43:37;;;;;;;10.43;3.03;;;;;;;;;;5098179;28;20288;-65
2022/10/31 12:46:08;;;;;;;9.40;3.43;;;;;;;;;;5097930;28;20646;-65
2022/10/31 12:48:47;;;;;;;9.90;2.90;;;;;;;;;;5097635;28;20245;-65
2022/10/31 12:51:23;;;;;;;10.23;3.03;;;;;;;;;;5097667;28;20360;-65
2022/10/31 12:53:56;;;;;;;6.47;2.70;;;;;;;;;;5097272;28;20232;-66
2022/10/31 12:56:31;;;;;;;8.70;2.77;;;;;;;;;;5097262;28;20296;-66
2022/10/31 12:59:01;;;;;;;8.97;2.63;;;;;;;;;;5098065;28;20653;-66
2022/10/31 13:01:31;;;;;;;8.93;2.50;;;;;;;;;;5099178;28;20293;-66
2022/10/31 13:04:03;;;;;;;5.60;2.87;;;;;;;;;;5101381;28;20259;-66
2022/10/31 13:06:33;;;;;;;8.27;3.03;;;;;;;;;;5101308;28;20275;-66
2022/10/31 13:09:02;;;;;;;12.70;2.87;;;;;;;;;;5101489;28;20206;-67
2022/10/31 13:11:32;;;;;;;11.23;3.00;;;;;;;;;;5100640;28;20295;-66
2022/10/31 13:14:02;;;;;;;9.07;2.80;;;;;;;;;;5100787;28;20225;-67
2022/10/31 13:16:31;;;;;;;6.70;2.60;;;;;;;;;;5098342;28;20226;-66
2022/10/31 13:19:04;;;;;;;6.53;2.03;;;;;;;;;;5093641;28;20666;-66
2022/10/31 13:21:35;;;;;;;4.10;2.07;;;;;;;;;;5101468;28;20220;-66
2022/10/31 13:24:05;;;;;;;7.67;2.07;;;;;;;;;;5101205;28;20221;-66
2022/10/31 13:26:36;;;;;;;6.50;2.47;;;;;;;;;;5100620;28;20234;-66
2022/10/31 13:29:07;;;;;;;12.93;2.53;;;;;;;;;;5100438;28;20277;-66
2022/10/31 13:31:35;;;;;;;13.60;2.70;;;;;;;;;;5100666;28;20616;-66
2022/10/31 13:34:06;;;;;;;9.90;3.50;;;;;;;;;;5100612;28;20228;-66
2022/10/31 13:36:40;;;;;;;8.40;2.60;;;;;;;;;;5100377;28;20237;-66
2022/10/31 13:39:15;;;;;;;8.67;2.57;;;;;;;;;;5100358;28;20234;-66
2022/10/31 13:41:45;;;;;;;8.93;2.57;;;;;;;;;;5100268;28;20205;-66
2022/10/31 13:44:15;;;;;;;5.47;2.53;;;;;;;;;;5100326;28;20255;-66
2022/10/31 13:46:43;;;;;;;9.37;2.73;;;;;;;;;;5100385;28;20248;-66
2022/10/31 13:49:41;;;;;;;12.17;2.80;;;;;;;;;;5100109;28;20635;-66
2022/10/31 13:52:15;;;;;;;9.53;2.50;;;;;;;;;;5017891;28;20704;-66
2022/10/31 13:54:43;;;;;;;11.67;3.50;;;;;;;;;;5083823;28;20688;-67
2022/10/31 13:57:16;;;;;;;10.13;3.37;;;;;;;;;;5099607;28;20281;-66
2022/10/31 13:59:49;;;;;;;9.80;3.10;;;;;;;;;;5100064;28;20214;-66
2022/10/31 14:02:17;;;;;;;7.50;2.93;;;;;;;;;;5100208;28;20232;-66
2022/10/31 14:04:47;;;;;;;6.97;3.33;;;;;;;;;;5100024;28;20228;-66
2022/10/31 14:07:17;;;;;;;14.50;4.30;;;;;;;;;;5099997;28;20614;-66
2022/10/31 14:09:53;;;;;;;6.00;3.10;;;;;;;;;;5099834;28;20220;-66
2022/10/31 14:12:25;;;;;;;12.87;3.37;;;;;;;;;;5099182;28;20267;-66
2022/10/31 14:14:55;;;;;;;5.17;2.87;;;;;;;;;;5099274;28;20564;-66
2022/10/31 14:17:24;;;;;;;7.07;2.90;;;;;;;;;;5099536;28;20236;-66
2022/10/31 14:20:03;;;;;;;9.60;3.27;;;;;;;;;;5086419;28;20250;-66
2022/10/31 14:22:33;;;;;;;9.80;3.73;;;;;;;;;;5099557;28;20236;-66
2022/10/31 14:25:22;;;;;;;13.17;3.83;;;;;;;;;;5089016;28;20218;-66
2022/10/31 14:27:51;;;;;;;8.60;3.37;;;;;;;;;;5099525;28;20243;-66
2022/10/31 14:30:22;;;;;;;8.83;3.37;;;;;;;;;;5099536;28;20259;-65
2022/10/31 14:32:54;;;;;;;9.63;3.37;;;;;;;;;;5099264;28;20205;-65
2022/10/31 14:35:25;;;;;;;5.93;3.00;;;;;;;;;;5099086;28;20232;-66
2022/10/31 14:38:17;;;;;;;11.13;3.50;;;;;;;;;;5099174;28;20235;-66
2022/10/31 14:40:53;;;;;;;7.73;2.87;;;;;;;;;;5098748;28;20237;-66
2022/10/31 14:43:26;;;;;;;8.93;3.53;;;;;;;;;;5098232;28;20221;-66
2022/10/31 14:46:00;;;;;;;9.27;3.77;;;;;;;;;;5098016;28;20222;-66
2022/10/31 14:48:37;;;;;;;12.50;4.23;;;;;;;;;;5099230;28;20227;-66
2022/10/31 14:51:09;;;;;;;11.00;3.70;;;;;;;;;;5099015;28;20230;-66
2022/10/31 14:53:44;;;;;;;7.27;3.07;;;;;;;;;;5098656;28;20261;-67
2022/10/31 14:56:12;;;;;;;13.30;3.77;;;;;;;;;;5098479;28;20277;-66